Saga Odyssey — VRDU9 — position and weather

sailwx.info

Track history (hours):
 
Tides and Currents Weather Stations Pressure Air Temp Water Temp Dewpoint Dewpoint Depression Visibility Wind Speed Wind Dir Waves Ship Positions

Saga Odyssey

Last reported at 2018-Jun-20 17:00 UTC. Time now 2018-Jun-20 17:22 UTC.
Position S 34°17' E 017°44'.

Length 199 m; draft 7.2 m.

Type: Ship (hazmat cat B). MMSI: 477058200.

Date/timePositionNaut miles runAvg speedWind from/ knotsBaromVisibWave heightAir tempDewpointWater temp
2018-Jun-20 17:00S 34°17' E 017°44'611.3
2018-Jun-20 16:30S 34°21' E 017°48'911.3
2018-Jun-20 15:41S 34°27' E 017°57'511.2
2018-Jun-20 15:14S 34°31' E 018°01'311.4
2018-Jun-20 14:57S 34°33' E 018°04'612.7
2018-Jun-20 14:28S 34°37' E 018°10'612.1
2018-Jun-20 14:00S 34°40' E 018°15'611.0
2018-Jun-20 13:30S 34°44' E 018°20'510.9
2018-Jun-20 13:00S 34°47' E 018°25'66 9.4
2018-Jun-20 06:00S 35°06' E 019°42'204 8.5 290 / 281021.0 5.4 17.011.9
2018-Jun-19 06:00S 34°36' E 023°48'112 9.3 290 / 301014.0 5.4 17.011.9
2018-Jun-18 18:00S 34°12' E 026°00'35311.5 270 / 241014.0 5.4 18.013.1
2018-Jun-17 11:18S 30°07' E 030°60'4 9.5
2018-Jun-17 10:52S 30°03' E 031°02'3 8.8
2018-Jun-17 10:30S 30°00' E 031°04'4 8.0
2018-Jun-17 10:00S 29°57' E 031°07'4 7.4
2018-Jun-17 09:30S 29°54' E 031°08'3 5.6
2018-Jun-17 09:00S 29°52' E 031°07'6 4.6
2018-Jun-17 07:41S 29°53' E 030°60'0 0.0
2018-Jun-17 07:29S 29°53' E 030°60'0 0.0
2018-Jun-17 06:26S 29°53' E 030°60'0 0.0
2018-Jun-17 05:59S 29°53' E 030°60'0 0.0
2018-Jun-17 05:29S 29°53' E 030°60'0 0.0
2018-Jun-17 04:59S 29°53' E 030°60'0 0.0
2018-Jun-17 04:29S 29°53' E 030°60'0 0.0
2018-Jun-17 03:59S 29°53' E 030°60'0 0.0
2018-Jun-17 03:29S 29°53' E 030°60'0 0.0
2018-Jun-17 02:59S 29°53' E 030°60'0 0.0
2018-Jun-17 02:29S 29°53' E 030°60'0 0.0
2018-Jun-17 01:59S 29°53' E 030°60'0 0.0
2018-Jun-17 01:29S 29°53' E 030°60'0 0.0
2018-Jun-17 00:59S 29°53' E 030°60'0 0.0
2018-Jun-17 00:29S 29°53' E 030°60'0 0.0
2018-Jun-16 23:59S 29°53' E 030°60'0 0.0
2018-Jun-16 23:29S 29°53' E 030°60'0 0.0
2018-Jun-16 22:59S 29°53' E 030°60'0 0.0
2018-Jun-16 22:29S 29°53' E 030°60'0 0.0
2018-Jun-16 21:59S 29°53' E 030°60'0 0.0
2018-Jun-16 21:29S 29°53' E 030°60'0 0.0
2018-Jun-16 20:59S 29°53' E 030°60'0 0.0
2018-Jun-16 20:29S 29°53' E 030°60'0 0.0
2018-Jun-16 19:59S 29°53' E 030°60'0 0.0
2018-Jun-16 19:29S 29°53' E 030°60'0 0.0
2018-Jun-16 18:59S 29°53' E 030°60'0 0.0
2018-Jun-16 18:29S 29°53' E 030°60'0 0.0
2018-Jun-16 17:59S 29°53' E 030°60'0 0.0
2018-Jun-16 17:29S 29°53' E 030°60'0 0.0
2018-Jun-16 16:59S 29°53' E 030°60'0 0.0
2018-Jun-16 16:29S 29°53' E 030°60'0 0.0
2018-Jun-16 15:59S 29°53' E 030°60'0 0.0
2018-Jun-16 15:29S 29°53' E 030°60'0 0.0
2018-Jun-16 14:59S 29°53' E 030°60'0 0.0
2018-Jun-16 14:29S 29°53' E 030°60'0 0.0
2018-Jun-16 13:59S 29°53' E 030°60'0 0.0
2018-Jun-16 13:29S 29°53' E 030°60'0 0.0
2018-Jun-16 12:59S 29°53' E 030°60'0 0.0
2018-Jun-16 12:29S 29°53' E 030°60'0 0.0
2018-Jun-16 11:59S 29°53' E 030°60'0 0.0
2018-Jun-16 11:29S 29°53' E 030°60'0 0.0
2018-Jun-16 10:59S 29°53' E 030°60'0 0.0
2018-Jun-16 10:29S 29°53' E 030°60'0 0.0
2018-Jun-16 09:59S 29°53' E 030°60'0 0.0
2018-Jun-16 09:29S 29°53' E 030°60'0 0.0
2018-Jun-16 08:59S 29°53' E 030°60'0 0.0
2018-Jun-16 08:29S 29°53' E 030°60'0 0.0
2018-Jun-16 07:59S 29°53' E 030°60'0 0.0
2018-Jun-16 07:29S 29°53' E 030°60'0 0.0
2018-Jun-16 06:59S 29°53' E 030°60'0 0.0
2018-Jun-16 06:29S 29°53' E 030°60'0 0.0
2018-Jun-16 05:59S 29°53' E 030°60'0 0.0
2018-Jun-16 05:29S 29°53' E 030°60'0 0.0
2018-Jun-16 04:59S 29°53' E 030°60'0 0.0
2018-Jun-16 04:29S 29°53' E 030°60'0 0.0
2018-Jun-16 03:59S 29°53' E 030°60'0 0.0
2018-Jun-16 03:29S 29°53' E 030°60'0 0.0
2018-Jun-16 02:59S 29°53' E 030°60'0 0.0
2018-Jun-16 02:29S 29°53' E 030°60'0 0.0
2018-Jun-16 01:59S 29°53' E 030°60'0 0.0
2018-Jun-16 01:29S 29°53' E 030°60'0 0.0
2018-Jun-16 00:59S 29°53' E 030°60'0 0.0
2018-Jun-16 00:29S 29°53' E 030°60'0 0.0
2018-Jun-15 23:59S 29°53' E 030°60'0 0.0
2018-Jun-15 23:29S 29°53' E 030°60'0 0.0
2018-Jun-15 22:59S 29°53' E 030°60'0 0.0
2018-Jun-15 22:29S 29°53' E 030°60'0 0.0
2018-Jun-15 21:59S 29°53' E 030°60'0 0.0
2018-Jun-15 21:29S 29°53' E 030°60'0 0.0
2018-Jun-15 20:59S 29°53' E 030°60'0 0.0
2018-Jun-15 20:29S 29°53' E 030°60'0 0.0
2018-Jun-15 19:50S 29°53' E 030°60'0 0.0
2018-Jun-15 19:29S 29°53' E 030°60'0 0.0
2018-Jun-15 18:59S 29°53' E 030°60'0 0.0
2018-Jun-15 18:29S 29°53' E 030°60'0 0.0
2018-Jun-15 17:59S 29°53' E 030°60'0 0.0
2018-Jun-15 17:29S 29°53' E 030°60'0 0.0
2018-Jun-15 16:59S 29°53' E 030°60'0 0.0
2018-Jun-15 16:29S 29°53' E 030°60'0 0.0
2018-Jun-15 15:59S 29°53' E 030°60'0 0.0
2018-Jun-15 15:29S 29°53' E 030°60'0 0.0
2018-Jun-15 14:59S 29°53' E 030°60'0 0.0
2018-Jun-15 14:29S 29°53' E 030°60'0 0.0
2018-Jun-15 13:59S 29°53' E 030°60'0 0.0
2018-Jun-15 13:29S 29°53' E 030°60'0 0.0
2018-Jun-15 12:59S 29°53' E 030°60'0 0.0
2018-Jun-15 10:35S 29°53' E 030°60'0 0.0
2018-Jun-15 10:29S 29°53' E 030°60'0 0.0
2018-Jun-15 09:59S 29°53' E 030°60'0 0.0
2018-Jun-15 09:29S 29°53' E 030°60'0 0.0
2018-Jun-15 08:59S 29°53' E 030°60'0 0.0
2018-Jun-15 08:29S 29°53' E 030°60'0 0.0
2018-Jun-15 07:59S 29°53' E 030°60'0 0.0
2018-Jun-15 07:29S 29°53' E 030°60'0 0.0
2018-Jun-15 06:59S 29°53' E 030°60'0 0.0
2018-Jun-15 06:23S 29°53' E 030°60'0 0.0
2018-Jun-15 05:59S 29°53' E 030°60'0 0.0
2018-Jun-15 05:29S 29°53' E 030°60'0 0.0
2018-Jun-15 04:59S 29°53' E 030°60'0 0.0
2018-Jun-15 04:29S 29°53' E 030°60'0 0.0
2018-Jun-15 03:59S 29°53' E 030°60'0 0.0
2018-Jun-15 03:29S 29°53' E 030°60'0 0.0
2018-Jun-15 02:59S 29°53' E 030°60'0 0.0
2018-Jun-15 02:29S 29°53' E 030°60'0 0.0
2018-Jun-15 01:59S 29°53' E 030°60'0 0.0
2018-Jun-15 01:29S 29°53' E 030°60'0 0.0
2018-Jun-15 00:59S 29°53' E 030°60'0 0.0
2018-Jun-15 00:29S 29°53' E 030°60'0 0.0
2018-Jun-14 23:59S 29°53' E 030°60'0 0.0
2018-Jun-14 23:29S 29°53' E 030°60'0 0.0
2018-Jun-14 22:59S 29°53' E 030°60'0 0.0
2018-Jun-14 22:29S 29°53' E 030°60'0 0.0
2018-Jun-14 21:59S 29°53' E 030°60'0 0.0
2018-Jun-14 21:29S 29°53' E 030°60'0 0.0
2018-Jun-14 20:59S 29°53' E 030°60'0 0.0
2018-Jun-14 20:29S 29°53' E 030°60'0 0.0
2018-Jun-14 19:59S 29°53' E 030°60'0 0.0
2018-Jun-14 19:29S 29°53' E 030°60'0 0.0
2018-Jun-14 18:59S 29°53' E 030°60'0 0.0
2018-Jun-14 18:29S 29°53' E 030°60'0 0.0
2018-Jun-14 17:59S 29°53' E 030°60'0 0.0
2018-Jun-14 17:29S 29°53' E 030°60'0 0.0
2018-Jun-14 16:56S 29°53' E 030°60'0 0.0
2018-Jun-14 16:29S 29°53' E 030°60'0 0.0
2018-Jun-14 15:59S 29°53' E 030°60'0 0.0
2018-Jun-14 15:29S 29°53' E 030°60'0 0.0
2018-Jun-14 14:59S 29°53' E 030°60'0 0.0
2018-Jun-14 14:29S 29°53' E 030°60'0 0.0
2018-Jun-14 13:59S 29°53' E 030°60'0 0.0
2018-Jun-14 13:29S 29°53' E 030°60'0 0.0
2018-Jun-14 12:59S 29°53' E 030°60'0 0.0
2018-Jun-14 12:29S 29°53' E 030°60'0 0.0
2018-Jun-14 11:59S 29°53' E 030°60'0 0.0
2018-Jun-14 11:29S 29°53' E 030°60'0 0.0
2018-Jun-14 10:59S 29°53' E 030°60'0 0.0
2018-Jun-14 10:29S 29°53' E 030°60'0 0.0
2018-Jun-14 09:59S 29°53' E 030°60'0 0.0
2018-Jun-14 09:29S 29°53' E 030°60'0 0.0
2018-Jun-14 08:59S 29°53' E 030°60'0 0.0
2018-Jun-14 08:14S 29°53' E 030°60'0 0.0
2018-Jun-14 07:59S 29°53' E 030°60'0 0.0
2018-Jun-14 07:29S 29°53' E 030°60'0 0.0
2018-Jun-14 06:59S 29°53' E 030°60'0 0.0
2018-Jun-14 06:29S 29°53' E 030°60'0 0.0
2018-Jun-14 05:59S 29°53' E 030°60'0 0.0
2018-Jun-14 05:29S 29°53' E 030°60'0 0.0
2018-Jun-14 04:59S 29°53' E 030°60'0 0.0
2018-Jun-14 04:29S 29°53' E 030°60'0 0.0
2018-Jun-14 03:59S 29°53' E 030°60'0 0.0
2018-Jun-14 03:29S 29°53' E 030°60'0 0.0
2018-Jun-14 02:59S 29°53' E 030°60'0 0.0
2018-Jun-14 02:29S 29°53' E 030°60'0 0.0
2018-Jun-14 01:59S 29°53' E 030°60'0 0.0
2018-Jun-14 01:29S 29°53' E 030°60'0 0.0
2018-Jun-14 00:59S 29°53' E 030°60'0 0.0
2018-Jun-14 00:29S 29°53' E 030°60'0 0.0
2018-Jun-13 23:59S 29°53' E 030°60'0 0.0
2018-Jun-13 23:29S 29°53' E 030°60'0 0.0
2018-Jun-13 22:59S 29°53' E 030°60'0 0.0
2018-Jun-13 22:29S 29°53' E 030°60'0 0.0
2018-Jun-13 21:59S 29°53' E 030°60'0 0.0
2018-Jun-13 21:29S 29°53' E 030°60'0 0.0
2018-Jun-13 20:56S 29°53' E 030°60'0 0.0
2018-Jun-13 20:29S 29°53' E 030°60'0 0.0
2018-Jun-13 19:59S 29°53' E 030°60'0 0.0
2018-Jun-13 19:29S 29°53' E 030°60'0 0.0
2018-Jun-13 18:59S 29°53' E 030°60'0 0.0
2018-Jun-13 18:29S 29°53' E 030°60'0 0.0
2018-Jun-13 17:59S 29°53' E 030°60'0 0.0
2018-Jun-13 17:29S 29°53' E 030°60'0 0.0
2018-Jun-13 16:59S 29°53' E 030°60'0 0.0
2018-Jun-13 16:29S 29°53' E 030°60'0 0.0
2018-Jun-13 15:59S 29°53' E 030°60'0 0.0
2018-Jun-13 15:29S 29°53' E 030°60'0 0.0
2018-Jun-13 14:59S 29°53' E 030°60'0 0.0
2018-Jun-13 14:29S 29°53' E 030°60'0 0.0
2018-Jun-13 13:59S 29°53' E 030°60'0 0.0
2018-Jun-13 13:29S 29°53' E 030°60'0 0.0
2018-Jun-13 12:59S 29°53' E 030°60'0 0.0
2018-Jun-13 12:29S 29°53' E 030°60'0 0.0
2018-Jun-13 11:59S 29°53' E 030°60'0 0.0
2018-Jun-13 11:29S 29°53' E 030°60'0 0.0
2018-Jun-13 10:59S 29°53' E 030°60'0 0.0
2018-Jun-13 10:29S 29°53' E 030°60'0 0.0
2018-Jun-13 09:59S 29°53' E 030°60'0 0.0
2018-Jun-13 09:29S 29°53' E 030°60'0 0.0
2018-Jun-13 08:59S 29°53' E 030°60'0 0.0
2018-Jun-13 08:29S 29°53' E 030°60'0 0.0
2018-Jun-13 07:59S 29°53' E 030°60'0 0.0
2018-Jun-13 07:29S 29°53' E 030°60'0 0.0
2018-Jun-13 06:59S 29°53' E 030°60'0 0.0
2018-Jun-13 06:29S 29°53' E 030°60'0 0.0
2018-Jun-13 05:56S 29°53' E 030°60'0 0.0
2018-Jun-13 05:29S 29°53' E 030°60'0 0.0
2018-Jun-13 04:59S 29°53' E 030°60'0 0.0
2018-Jun-13 04:29S 29°53' E 030°60'0 0.0
2018-Jun-13 03:59S 29°53' E 030°60'0 0.0
2018-Jun-13 03:29S 29°53' E 030°60'0 0.0
2018-Jun-13 02:59S 29°53' E 030°60'0 0.0
2018-Jun-13 02:29S 29°53' E 030°60'0 0.0
2018-Jun-13 01:59S 29°53' E 030°60'0 0.0
2018-Jun-13 01:29S 29°53' E 030°60'0 0.0
2018-Jun-13 00:59S 29°53' E 030°60'0 0.0
2018-Jun-13 00:29S 29°53' E 030°60'0 0.0
2018-Jun-12 23:59S 29°53' E 030°60'0 0.0
2018-Jun-12 23:29S 29°53' E 030°60'0 0.0
2018-Jun-12 22:59S 29°53' E 030°60'0 0.0
2018-Jun-12 22:29S 29°53' E 030°60'0 0.0
2018-Jun-12 21:59S 29°53' E 030°60'0 0.0
2018-Jun-12 21:29S 29°53' E 030°60'0 0.0
2018-Jun-12 20:59S 29°53' E 030°60'0 0.0
2018-Jun-12 20:29S 29°53' E 030°60'0 0.0
2018-Jun-12 19:59S 29°53' E 030°60'0 0.0
2018-Jun-12 19:29S 29°53' E 030°60'0 0.0
2018-Jun-12 18:59S 29°53' E 030°60'0 0.0
2018-Jun-12 18:29S 29°53' E 030°60'0 0.0
2018-Jun-12 17:59S 29°53' E 030°60'0 0.0
2018-Jun-12 17:29S 29°53' E 030°60'0 0.0
2018-Jun-12 16:59S 29°53' E 030°60'0 0.0
2018-Jun-12 16:29S 29°53' E 030°60'0 0.0
2018-Jun-12 15:59S 29°53' E 030°60'0 0.0
2018-Jun-12 15:29S 29°53' E 030°60'0 0.0
2018-Jun-12 14:59S 29°53' E 030°60'0 0.0
2018-Jun-12 14:29S 29°53' E 030°60'0 0.0
2018-Jun-12 13:59S 29°53' E 030°60'0 0.0
2018-Jun-12 13:29S 29°53' E 030°60'0 0.0
2018-Jun-12 12:59S 29°53' E 030°60'0 0.0
2018-Jun-12 12:29S 29°53' E 030°60'0 0.0
2018-Jun-12 11:59S 29°53' E 030°60'0 0.0
2018-Jun-12 11:29S 29°53' E 030°60'0 0.0
2018-Jun-12 10:59S 29°53' E 030°60'0 0.0
2018-Jun-12 10:30S 29°53' E 030°60'0 0.7
2018-Jun-12 10:00S 29°53' E 031°00'2 3.2
2018-Jun-12 09:30S 29°52' E 031°02'3 6.4
2018-Jun-12 08:58S 29°50' E 031°05'2 4.5
2018-Jun-12 08:30S 29°49' E 031°07'1 1.3
2018-Jun-12 08:00S 29°48' E 031°07'2 4.2
2018-Jun-12 07:30S 29°47' E 031°09'2 4.3
2018-Jun-12 06:58S 29°45' E 031°09'0 0.1
2018-Jun-12 06:28S 29°45' E 031°09'0 0.0
2018-Jun-12 05:58S 29°44' E 031°09'0 0.0
2018-Jun-12 05:28S 29°44' E 031°09'0 0.0
2018-Jun-12 04:58S 29°44' E 031°09'0 0.1
2018-Jun-12 04:28S 29°44' E 031°09'0 0.0
2018-Jun-12 03:58S 29°44' E 031°09'0 0.1
2018-Jun-12 03:28S 29°44' E 031°09'0 0.1
2018-Jun-12 02:58S 29°44' E 031°09'0 0.0
2018-Jun-12 02:28S 29°44' E 031°09'0 0.0
2018-Jun-12 01:58S 29°44' E 031°09'0 0.1
2018-Jun-12 01:28S 29°44' E 031°09'0 0.1
2018-Jun-12 00:58S 29°44' E 031°09'0 0.0
2018-Jun-12 00:28S 29°44' E 031°09'0 0.0
2018-Jun-11 23:58S 29°44' E 031°09'0 0.0
2018-Jun-11 23:28S 29°44' E 031°09'0 0.0
2018-Jun-11 22:58S 29°44' E 031°09'0 0.0
2018-Jun-11 22:28S 29°44' E 031°09'0 0.0
2018-Jun-11 21:58S 29°44' E 031°09'0 0.0
2018-Jun-11 21:28S 29°44' E 031°09'0 0.0
2018-Jun-11 20:58S 29°44' E 031°09'0 0.0
2018-Jun-11 20:28S 29°44' E 031°09'0 0.0
2018-Jun-11 19:58S 29°44' E 031°09'0 0.0
2018-Jun-11 19:28S 29°44' E 031°09'0 0.0
2018-Jun-11 18:58S 29°44' E 031°09'0 0.0
2018-Jun-11 18:28S 29°44' E 031°09'0 0.0
2018-Jun-11 17:58S 29°44' E 031°09'0 0.0
2018-Jun-11 17:28S 29°44' E 031°09'0 0.0
2018-Jun-11 16:58S 29°44' E 031°09'0 0.1
2018-Jun-11 16:28S 29°44' E 031°09'0 0.0
2018-Jun-11 15:58S 29°44' E 031°09'0 0.0
2018-Jun-11 15:28S 29°44' E 031°09'0 0.0
2018-Jun-11 14:58S 29°44' E 031°09'0 0.0
2018-Jun-11 14:28S 29°44' E 031°09'0 0.0
2018-Jun-11 13:58S 29°44' E 031°09'0 0.0
2018-Jun-11 13:28S 29°44' E 031°09'0 0.1
2018-Jun-11 12:58S 29°44' E 031°09'0 0.0
2018-Jun-11 12:30S 29°44' E 031°09'0 0.0
2018-Jun-11 12:00S 29°44' E 031°09'0 0.0
2018-Jun-11 11:30S 29°44' E 031°09'0 0.0
2018-Jun-11 11:00S 29°44' E 031°09'0 0.5
2018-Jun-11 10:30S 29°44' E 031°09'2 4.7
2018-Jun-11 10:01S 29°44' E 031°12'3 6.2
2018-Jun-11 09:30S 29°46' E 031°15'4 7.6
2018-Jun-11 09:01S 29°46' E 031°19'4 8.5
2018-Jun-11 08:30S 29°45' E 031°24'4 8.2
2018-Jun-11 08:00S 29°44' E 031°28'3 6.9
2018-Jun-11 07:30S 29°43' E 031°32'4 8.8
2018-Jun-11 07:00S 29°42' E 031°37'611.9
2018-Jun-11 06:30S 29°40' E 031°43'612.0
2018-Jun-11 06:01S 29°39' E 031°50'611.8
2018-Jun-11 05:31S 29°37' E 031°57'612.2
2018-Jun-11 05:00S 29°35' E 032°03'12911.8
2018-Jun-10 18:00S 28°54' E 034°24'   140 / 141023.0 5.4 22.019.0
Track history (hours):
 
Tides and Currents Weather Stations Pressure Air Temp Water Temp Dewpoint Dewpoint Depression Visibility Wind Speed Wind Dir Waves Ship Positions

Saga Odyssey

Last reported at 2018-Jun-20 17:00 UTC. Time now 2018-Jun-20 17:22 UTC.
Position S 34°17' E 017°44'.

Length 199 m; draft 7.2 m.

Type: Ship (hazmat cat B). MMSI: 477058200.

Date/timePositionNaut miles runAvg speedWind from/ knotsBaromVisibWave heightAir tempDewpointWater temp
2018-Jun-20 17:00S 34°17' E 017°44'611.3
2018-Jun-20 16:30S 34°21' E 017°48'911.3
2018-Jun-20 15:41S 34°27' E 017°57'511.2
2018-Jun-20 15:14S 34°31' E 018°01'311.4
2018-Jun-20 14:57S 34°33' E 018°04'612.7
2018-Jun-20 14:28S 34°37' E 018°10'612.1
2018-Jun-20 14:00S 34°40' E 018°15'611.0
2018-Jun-20 13:30S 34°44' E 018°20'510.9
2018-Jun-20 13:00S 34°47' E 018°25'66 9.4
2018-Jun-20 06:00S 35°06' E 019°42'204 8.5 290 / 281021.0 5.4 17.011.9
2018-Jun-19 06:00S 34°36' E 023°48'112 9.3 290 / 301014.0 5.4 17.011.9
2018-Jun-18 18:00S 34°12' E 026°00'35311.5 270 / 241014.0 5.4 18.013.1
2018-Jun-17 11:18S 30°07' E 030°60'4 9.5
2018-Jun-17 10:52S 30°03' E 031°02'3 8.8
2018-Jun-17 10:30S 30°00' E 031°04'4 8.0
2018-Jun-17 10:00S 29°57' E 031°07'4 7.4
2018-Jun-17 09:30S 29°54' E 031°08'3 5.6
2018-Jun-17 09:00S 29°52' E 031°07'6 4.6
2018-Jun-17 07:41S 29°53' E 030°60'0 0.0
2018-Jun-17 07:29S 29°53' E 030°60'0 0.0
2018-Jun-17 06:26S 29°53' E 030°60'0 0.0
2018-Jun-17 05:59S 29°53' E 030°60'0 0.0
2018-Jun-17 05:29S 29°53' E 030°60'0 0.0
2018-Jun-17 04:59S 29°53' E 030°60'0 0.0
2018-Jun-17 04:29S 29°53' E 030°60'0 0.0
2018-Jun-17 03:59S 29°53' E 030°60'0 0.0
2018-Jun-17 03:29S 29°53' E 030°60'0 0.0
2018-Jun-17 02:59S 29°53' E 030°60'0 0.0
2018-Jun-17 02:29S 29°53' E 030°60'0 0.0
2018-Jun-17 01:59S 29°53' E 030°60'0 0.0
2018-Jun-17 01:29S 29°53' E 030°60'0 0.0
2018-Jun-17 00:59S 29°53' E 030°60'0 0.0
2018-Jun-17 00:29S 29°53' E 030°60'0 0.0
2018-Jun-16 23:59S 29°53' E 030°60'0 0.0
2018-Jun-16 23:29S 29°53' E 030°60'0 0.0
2018-Jun-16 22:59S 29°53' E 030°60'0 0.0
2018-Jun-16 22:29S 29°53' E 030°60'0 0.0
2018-Jun-16 21:59S 29°53' E 030°60'0 0.0
2018-Jun-16 21:29S 29°53' E 030°60'0 0.0
2018-Jun-16 20:59S 29°53' E 030°60'0 0.0
2018-Jun-16 20:29S 29°53' E 030°60'0 0.0
2018-Jun-16 19:59S 29°53' E 030°60'0 0.0
2018-Jun-16 19:29S 29°53' E 030°60'0 0.0
2018-Jun-16 18:59S 29°53' E 030°60'0 0.0
2018-Jun-16 18:29S 29°53' E 030°60'0 0.0
2018-Jun-16 17:59S 29°53' E 030°60'0 0.0
2018-Jun-16 17:29S 29°53' E 030°60'0 0.0
2018-Jun-16 16:59S 29°53' E 030°60'0 0.0
2018-Jun-16 16:29S 29°53' E 030°60'0 0.0
2018-Jun-16 15:59S 29°53' E 030°60'0 0.0
2018-Jun-16 15:29S 29°53' E 030°60'0 0.0
2018-Jun-16 14:59S 29°53' E 030°60'0 0.0
2018-Jun-16 14:29S 29°53' E 030°60'0 0.0
2018-Jun-16 13:59S 29°53' E 030°60'0 0.0
2018-Jun-16 13:29S 29°53' E 030°60'0 0.0
2018-Jun-16 12:59S 29°53' E 030°60'0 0.0
2018-Jun-16 12:29S 29°53' E 030°60'0 0.0
2018-Jun-16 11:59S 29°53' E 030°60'0 0.0
2018-Jun-16 11:29S 29°53' E 030°60'0 0.0
2018-Jun-16 10:59S 29°53' E 030°60'0 0.0
2018-Jun-16 10:29S 29°53' E 030°60'0 0.0
2018-Jun-16 09:59S 29°53' E 030°60'0 0.0
2018-Jun-16 09:29S 29°53' E 030°60'0 0.0
2018-Jun-16 08:59S 29°53' E 030°60'0 0.0
2018-Jun-16 08:29S 29°53' E 030°60'0 0.0
2018-Jun-16 07:59S 29°53' E 030°60'0 0.0
2018-Jun-16 07:29S 29°53' E 030°60'0 0.0
2018-Jun-16 06:59S 29°53' E 030°60'0 0.0
2018-Jun-16 06:29S 29°53' E 030°60'0 0.0
2018-Jun-16 05:59S 29°53' E 030°60'0 0.0
2018-Jun-16 05:29S 29°53' E 030°60'0 0.0
2018-Jun-16 04:59S 29°53' E 030°60'0 0.0
2018-Jun-16 04:29S 29°53' E 030°60'0 0.0
2018-Jun-16 03:59S 29°53' E 030°60'0 0.0
2018-Jun-16 03:29S 29°53' E 030°60'0 0.0
2018-Jun-16 02:59S 29°53' E 030°60'0 0.0
2018-Jun-16 02:29S 29°53' E 030°60'0 0.0
2018-Jun-16 01:59S 29°53' E 030°60'0 0.0
2018-Jun-16 01:29S 29°53' E 030°60'0 0.0
2018-Jun-16 00:59S 29°53' E 030°60'0 0.0
2018-Jun-16 00:29S 29°53' E 030°60'0 0.0
2018-Jun-15 23:59S 29°53' E 030°60'0 0.0
2018-Jun-15 23:29S 29°53' E 030°60'0 0.0
2018-Jun-15 22:59S 29°53' E 030°60'0 0.0
2018-Jun-15 22:29S 29°53' E 030°60'0 0.0
2018-Jun-15 21:59S 29°53' E 030°60'0 0.0
2018-Jun-15 21:29S 29°53' E 030°60'0 0.0
2018-Jun-15 20:59S 29°53' E 030°60'0 0.0
2018-Jun-15 20:29S 29°53' E 030°60'0 0.0
2018-Jun-15 19:50S 29°53' E 030°60'0 0.0
2018-Jun-15 19:29S 29°53' E 030°60'0 0.0
2018-Jun-15 18:59S 29°53' E 030°60'0 0.0
2018-Jun-15 18:29S 29°53' E 030°60'0 0.0
2018-Jun-15 17:59S 29°53' E 030°60'0 0.0
2018-Jun-15 17:29S 29°53' E 030°60'0 0.0
2018-Jun-15 16:59S 29°53' E 030°60'0 0.0
2018-Jun-15 16:29S 29°53' E 030°60'0 0.0
2018-Jun-15 15:59S 29°53' E 030°60'0 0.0
2018-Jun-15 15:29S 29°53' E 030°60'0 0.0
2018-Jun-15 14:59S 29°53' E 030°60'0 0.0
2018-Jun-15 14:29S 29°53' E 030°60'0 0.0
2018-Jun-15 13:59S 29°53' E 030°60'0 0.0
2018-Jun-15 13:29S 29°53' E 030°60'0 0.0
2018-Jun-15 12:59S 29°53' E 030°60'0 0.0
2018-Jun-15 10:35S 29°53' E 030°60'0 0.0
2018-Jun-15 10:29S 29°53' E 030°60'0 0.0
2018-Jun-15 09:59S 29°53' E 030°60'0 0.0
2018-Jun-15 09:29S 29°53' E 030°60'0 0.0
2018-Jun-15 08:59S 29°53' E 030°60'0 0.0
2018-Jun-15 08:29S 29°53' E 030°60'0 0.0
2018-Jun-15 07:59S 29°53' E 030°60'0 0.0
2018-Jun-15 07:29S 29°53' E 030°60'0 0.0
2018-Jun-15 06:59S 29°53' E 030°60'0 0.0
2018-Jun-15 06:23S 29°53' E 030°60'0 0.0
2018-Jun-15 05:59S 29°53' E 030°60'0 0.0
2018-Jun-15 05:29S 29°53' E 030°60'0 0.0
2018-Jun-15 04:59S 29°53' E 030°60'0 0.0
2018-Jun-15 04:29S 29°53' E 030°60'0 0.0
2018-Jun-15 03:59S 29°53' E 030°60'0 0.0
2018-Jun-15 03:29S 29°53' E 030°60'0 0.0
2018-Jun-15 02:59S 29°53' E 030°60'0 0.0
2018-Jun-15 02:29S 29°53' E 030°60'0 0.0
2018-Jun-15 01:59S 29°53' E 030°60'0 0.0
2018-Jun-15 01:29S 29°53' E 030°60'0 0.0
2018-Jun-15 00:59S 29°53' E 030°60'0 0.0
2018-Jun-15 00:29S 29°53' E 030°60'0 0.0
2018-Jun-14 23:59S 29°53' E 030°60'0 0.0
2018-Jun-14 23:29S 29°53' E 030°60'0 0.0
2018-Jun-14 22:59S 29°53' E 030°60'0 0.0
2018-Jun-14 22:29S 29°53' E 030°60'0 0.0
2018-Jun-14 21:59S 29°53' E 030°60'0 0.0
2018-Jun-14 21:29S 29°53' E 030°60'0 0.0
2018-Jun-14 20:59S 29°53' E 030°60'0 0.0
2018-Jun-14 20:29S 29°53' E 030°60'0 0.0
2018-Jun-14 19:59S 29°53' E 030°60'0 0.0
2018-Jun-14 19:29S 29°53' E 030°60'0 0.0
2018-Jun-14 18:59S 29°53' E 030°60'0 0.0
2018-Jun-14 18:29S 29°53' E 030°60'0 0.0
2018-Jun-14 17:59S 29°53' E 030°60'0 0.0
2018-Jun-14 17:29S 29°53' E 030°60'0 0.0
2018-Jun-14 16:56S 29°53' E 030°60'0 0.0
2018-Jun-14 16:29S 29°53' E 030°60'0 0.0
2018-Jun-14 15:59S 29°53' E 030°60'0 0.0
2018-Jun-14 15:29S 29°53' E 030°60'0 0.0
2018-Jun-14 14:59S 29°53' E 030°60'0 0.0
2018-Jun-14 14:29S 29°53' E 030°60'0 0.0
2018-Jun-14 13:59S 29°53' E 030°60'0 0.0
2018-Jun-14 13:29S 29°53' E 030°60'0 0.0
2018-Jun-14 12:59S 29°53' E 030°60'0 0.0
2018-Jun-14 12:29S 29°53' E 030°60'0 0.0
2018-Jun-14 11:59S 29°53' E 030°60'0 0.0
2018-Jun-14 11:29S 29°53' E 030°60'0 0.0
2018-Jun-14 10:59S 29°53' E 030°60'0 0.0
2018-Jun-14 10:29S 29°53' E 030°60'0 0.0
2018-Jun-14 09:59S 29°53' E 030°60'0 0.0
2018-Jun-14 09:29S 29°53' E 030°60'0 0.0
2018-Jun-14 08:59S 29°53' E 030°60'0 0.0
2018-Jun-14 08:14S 29°53' E 030°60'0 0.0
2018-Jun-14 07:59S 29°53' E 030°60'0 0.0
2018-Jun-14 07:29S 29°53' E 030°60'0 0.0
2018-Jun-14 06:59S 29°53' E 030°60'0 0.0
2018-Jun-14 06:29S 29°53' E 030°60'0 0.0
2018-Jun-14 05:59S 29°53' E 030°60'0 0.0
2018-Jun-14 05:29S 29°53' E 030°60'0 0.0
2018-Jun-14 04:59S 29°53' E 030°60'0 0.0
2018-Jun-14 04:29S 29°53' E 030°60'0 0.0
2018-Jun-14 03:59S 29°53' E 030°60'0 0.0
2018-Jun-14 03:29S 29°53' E 030°60'0 0.0
2018-Jun-14 02:59S 29°53' E 030°60'0 0.0
2018-Jun-14 02:29S 29°53' E 030°60'0 0.0
2018-Jun-14 01:59S 29°53' E 030°60'0 0.0
2018-Jun-14 01:29S 29°53' E 030°60'0 0.0
2018-Jun-14 00:59S 29°53' E 030°60'0 0.0
2018-Jun-14 00:29S 29°53' E 030°60'0 0.0
2018-Jun-13 23:59S 29°53' E 030°60'0 0.0
2018-Jun-13 23:29S 29°53' E 030°60'0 0.0
2018-Jun-13 22:59S 29°53' E 030°60'0 0.0
2018-Jun-13 22:29S 29°53' E 030°60'0 0.0
2018-Jun-13 21:59S 29°53' E 030°60'0 0.0
2018-Jun-13 21:29S 29°53' E 030°60'0 0.0
2018-Jun-13 20:56S 29°53' E 030°60'0 0.0
2018-Jun-13 20:29S 29°53' E 030°60'0 0.0
2018-Jun-13 19:59S 29°53' E 030°60'0 0.0
2018-Jun-13 19:29S 29°53' E 030°60'0 0.0
2018-Jun-13 18:59S 29°53' E 030°60'0 0.0
2018-Jun-13 18:29S 29°53' E 030°60'0 0.0
2018-Jun-13 17:59S 29°53' E 030°60'0 0.0
2018-Jun-13 17:29S 29°53' E 030°60'0 0.0
2018-Jun-13 16:59S 29°53' E 030°60'0 0.0
2018-Jun-13 16:29S 29°53' E 030°60'0 0.0
2018-Jun-13 15:59S 29°53' E 030°60'0 0.0
2018-Jun-13 15:29S 29°53' E 030°60'0 0.0
2018-Jun-13 14:59S 29°53' E 030°60'0 0.0
2018-Jun-13 14:29S 29°53' E 030°60'0 0.0
2018-Jun-13 13:59S 29°53' E 030°60'0 0.0
2018-Jun-13 13:29S 29°53' E 030°60'0 0.0
2018-Jun-13 12:59S 29°53' E 030°60'0 0.0
2018-Jun-13 12:29S 29°53' E 030°60'0 0.0
2018-Jun-13 11:59S 29°53' E 030°60'0 0.0
2018-Jun-13 11:29S 29°53' E 030°60'0 0.0
2018-Jun-13 10:59S 29°53' E 030°60'0 0.0
2018-Jun-13 10:29S 29°53' E 030°60'0 0.0
2018-Jun-13 09:59S 29°53' E 030°60'0 0.0
2018-Jun-13 09:29S 29°53' E 030°60'0 0.0
2018-Jun-13 08:59S 29°53' E 030°60'0 0.0
2018-Jun-13 08:29S 29°53' E 030°60'0 0.0
2018-Jun-13 07:59S 29°53' E 030°60'0 0.0
2018-Jun-13 07:29S 29°53' E 030°60'0 0.0
2018-Jun-13 06:59S 29°53' E 030°60'0 0.0
2018-Jun-13 06:29S 29°53' E 030°60'0 0.0
2018-Jun-13 05:56S 29°53' E 030°60'0 0.0
2018-Jun-13 05:29S 29°53' E 030°60'0 0.0
2018-Jun-13 04:59S 29°53' E 030°60'0 0.0
2018-Jun-13 04:29S 29°53' E 030°60'0 0.0
2018-Jun-13 03:59S 29°53' E 030°60'0 0.0
2018-Jun-13 03:29S 29°53' E 030°60'0 0.0
2018-Jun-13 02:59S 29°53' E 030°60'0 0.0
2018-Jun-13 02:29S 29°53' E 030°60'0 0.0
2018-Jun-13 01:59S 29°53' E 030°60'0 0.0
2018-Jun-13 01:29S 29°53' E 030°60'0 0.0
2018-Jun-13 00:59S 29°53' E 030°60'0 0.0
2018-Jun-13 00:29S 29°53' E 030°60'0 0.0
2018-Jun-12 23:59S 29°53' E 030°60'0 0.0
2018-Jun-12 23:29S 29°53' E 030°60'0 0.0
2018-Jun-12 22:59S 29°53' E 030°60'0 0.0
2018-Jun-12 22:29S 29°53' E 030°60'0 0.0
2018-Jun-12 21:59S 29°53' E 030°60'0 0.0
2018-Jun-12 21:29S 29°53' E 030°60'0 0.0
2018-Jun-12 20:59S 29°53' E 030°60'0 0.0
2018-Jun-12 20:29S 29°53' E 030°60'0 0.0
2018-Jun-12 19:59S 29°53' E 030°60'0 0.0
2018-Jun-12 19:29S 29°53' E 030°60'0 0.0
2018-Jun-12 18:59S 29°53' E 030°60'0 0.0
2018-Jun-12 18:29S 29°53' E 030°60'0 0.0
2018-Jun-12 17:59S 29°53' E 030°60'0 0.0
2018-Jun-12 17:29S 29°53' E 030°60'0 0.0
2018-Jun-12 16:59S 29°53' E 030°60'0 0.0
2018-Jun-12 16:29S 29°53' E 030°60'0 0.0
2018-Jun-12 15:59S 29°53' E 030°60'0 0.0
2018-Jun-12 15:29S 29°53' E 030°60'0 0.0
2018-Jun-12 14:59S 29°53' E 030°60'0 0.0
2018-Jun-12 14:29S 29°53' E 030°60'0 0.0
2018-Jun-12 13:59S 29°53' E 030°60'0 0.0
2018-Jun-12 13:29S 29°53' E 030°60'0 0.0
2018-Jun-12 12:59S 29°53' E 030°60'0 0.0
2018-Jun-12 12:29S 29°53' E 030°60'0 0.0
2018-Jun-12 11:59S 29°53' E 030°60'0 0.0
2018-Jun-12 11:29S 29°53' E 030°60'0 0.0
2018-Jun-12 10:59S 29°53' E 030°60'0 0.0
2018-Jun-12 10:30S 29°53' E 030°60'0 0.7
2018-Jun-12 10:00S 29°53' E 031°00'2 3.2
2018-Jun-12 09:30S 29°52' E 031°02'3 6.4
2018-Jun-12 08:58S 29°50' E 031°05'2 4.5
2018-Jun-12 08:30S 29°49' E 031°07'1 1.3
2018-Jun-12 08:00S 29°48' E 031°07'2 4.2
2018-Jun-12 07:30S 29°47' E 031°09'2 4.3
2018-Jun-12 06:58S 29°45' E 031°09'0 0.1
2018-Jun-12 06:28S 29°45' E 031°09'0 0.0
2018-Jun-12 05:58S 29°44' E 031°09'0 0.0
2018-Jun-12 05:28S 29°44' E 031°09'0 0.0
2018-Jun-12 04:58S 29°44' E 031°09'0 0.1
2018-Jun-12 04:28S 29°44' E 031°09'0 0.0
2018-Jun-12 03:58S 29°44' E 031°09'0 0.1
2018-Jun-12 03:28S 29°44' E 031°09'0 0.1
2018-Jun-12 02:58S 29°44' E 031°09'0 0.0
2018-Jun-12 02:28S 29°44' E 031°09'0 0.0
2018-Jun-12 01:58S 29°44' E 031°09'0 0.1
2018-Jun-12 01:28S 29°44' E 031°09'0 0.1
2018-Jun-12 00:58S 29°44' E 031°09'0 0.0
2018-Jun-12 00:28S 29°44' E 031°09'0 0.0
2018-Jun-11 23:58S 29°44' E 031°09'0 0.0
2018-Jun-11 23:28S 29°44' E 031°09'0 0.0
2018-Jun-11 22:58S 29°44' E 031°09'0 0.0
2018-Jun-11 22:28S 29°44' E 031°09'0 0.0
2018-Jun-11 21:58S 29°44' E 031°09'0 0.0
2018-Jun-11 21:28S 29°44' E 031°09'0 0.0
2018-Jun-11 20:58S 29°44' E 031°09'0 0.0
2018-Jun-11 20:28S 29°44' E 031°09'0 0.0
2018-Jun-11 19:58S 29°44' E 031°09'0 0.0
2018-Jun-11 19:28S 29°44' E 031°09'0 0.0
2018-Jun-11 18:58S 29°44' E 031°09'0 0.0
2018-Jun-11 18:28S 29°44' E 031°09'0 0.0
2018-Jun-11 17:58S 29°44' E 031°09'0 0.0
2018-Jun-11 17:28S 29°44' E 031°09'0 0.0
2018-Jun-11 16:58S 29°44' E 031°09'0 0.1
2018-Jun-11 16:28S 29°44' E 031°09'0 0.0
2018-Jun-11 15:58S 29°44' E 031°09'0 0.0
2018-Jun-11 15:28S 29°44' E 031°09'0 0.0
2018-Jun-11 14:58S 29°44' E 031°09'0 0.0
2018-Jun-11 14:28S 29°44' E 031°09'0 0.0
2018-Jun-11 13:58S 29°44' E 031°09'0 0.0
2018-Jun-11 13:28S 29°44' E 031°09'0 0.1
2018-Jun-11 12:58S 29°44' E 031°09'0 0.0
2018-Jun-11 12:30S 29°44' E 031°09'0 0.0
2018-Jun-11 12:00S 29°44' E 031°09'0 0.0
2018-Jun-11 11:30S 29°44' E 031°09'0 0.0
2018-Jun-11 11:00S 29°44' E 031°09'0 0.5
2018-Jun-11 10:30S 29°44' E 031°09'2 4.7
2018-Jun-11 10:01S 29°44' E 031°12'3 6.2
2018-Jun-11 09:30S 29°46' E 031°15'4 7.6
2018-Jun-11 09:01S 29°46' E 031°19'4 8.5
2018-Jun-11 08:30S 29°45' E 031°24'4 8.2
2018-Jun-11 08:00S 29°44' E 031°28'3 6.9
2018-Jun-11 07:30S 29°43' E 031°32'4 8.8
2018-Jun-11 07:00S 29°42' E 031°37'611.9
2018-Jun-11 06:30S 29°40' E 031°43'612.0
2018-Jun-11 06:01S 29°39' E 031°50'611.8
2018-Jun-11 05:31S 29°37' E 031°57'612.2
2018-Jun-11 05:00S 29°35' E 032°03'12911.8
2018-Jun-10 18:00S 28°54' E 034°24'   140 / 141023.0 5.4 22.019.0

Dump ship's entire track history